Time;durP1;ratioP1;P1;durP2;ratioP2;P2;SDS_P1;SDS_P2;PMS_P1;PMS_P2;Temp;Humidity;BMP_temperature;BMP_pressure;BME280_temperature;BME280_humidity;BME280_pressure;Samples;Min_cycle;Max_cycle;Signal;HPM_P1;HPM_P2
2022/11/28 00:01:45;;;;;;;9.35;6.57;;;7.50;62.40;;;6.13;65.40;101763.25;12170692;19;20679;-86
2022/11/28 00:05:47;;;;;;;7.45;5.50;;;7.50;62.60;;;6.19;65.24;101770.94;12173180;19;20487;-86
2022/11/28 00:09:48;;;;;;;8.55;6.32;;;7.50;62.50;;;6.16;65.18;101765.81;12175857;19;20025;-86
2022/11/28 00:13:50;;;;;;;8.95;6.47;;;7.50;62.50;;;6.03;65.13;101747.06;12174262;19;20891;-86
2022/11/28 00:17:52;;;;;;;8.50;6.65;;;7.50;62.60;;;5.95;65.11;101721.28;12171397;19;20018;-85
2022/11/28 00:21:54;;;;;;;9.23;6.47;;;7.50;62.50;;;5.79;65.18;101703.44;12169903;19;20025;-86
2022/11/28 00:26:07;;;;;;;9.18;6.10;;;7.40;62.50;;;5.97;65.11;101729.03;12176368;19;20014;-86
2022/11/28 00:30:10;;;;;;;9.60;6.50;;;7.40;62.60;;;6.07;65.39;101745.25;12167044;19;20392;-85
2022/11/28 00:34:13;;;;;;;11.23;7.78;;;7.40;62.60;;;6.09;65.21;101741.72;12170033;19;20406;-85
2022/11/28 00:38:15;;;;;;;9.20;6.97;;;7.40;62.60;;;5.98;65.22;101734.16;12168045;19;20021;-86
2022/11/28 00:42:20;;;;;;;9.27;6.55;;;7.40;62.60;;;6.04;65.48;101729.75;12171364;19;20014;-86
2022/11/28 00:46:23;;;;;;;8.88;7.45;;;7.30;62.70;;;6.02;65.30;101726.31;12172322;19;20398;-86
2022/11/28 00:50:25;;;;;;;8.95;6.30;;;7.40;62.90;;;5.90;65.41;101702.34;12165462;19;20021;-86
2022/11/28 00:54:27;;;;;;;9.68;5.97;;;7.50;63.00;;;6.02;65.30;101726.31;12166788;19;20014;-86
2022/11/28 00:58:29;;;;;;;10.52;6.65;;;7.30;62.80;;;5.99;65.54;101719.47;12164370;19;20054;-86
2022/11/28 01:02:32;;;;;;;9.57;6.53;;;7.30;62.90;;;6.01;65.47;101720.28;12157052;19;20498;-86
2022/11/28 01:06:47;;;;;;;9.27;6.63;;;7.30;63.10;;;5.88;65.22;101700.66;12163455;19;21094;-85
2022/11/28 01:10:49;;;;;;;;;;;7.60;63.40;;;5.98;65.55;101710.00;12165529;19;20014;-86
2022/11/28 01:14:51;;;;;;;7.15;5.07;;;7.30;63.20;;;5.97;65.33;101708.28;12168290;19;20319;-86
2022/11/28 01:18:53;;;;;;;6.78;5.38;;;7.30;62.90;;;6.03;65.47;101704.72;12167486;19;20375;-85
2022/11/28 01:22:55;;;;;;;7.65;5.85;;;7.50;63.10;;;6.01;65.45;101707.34;12163156;19;20399;-86
2022/11/28 01:26:57;;;;;;;9.10;6.68;;;7.30;62.90;;;5.98;65.49;101699.63;12168305;19;21278;-86
2022/11/28 01:31:07;;;;;;;9.90;6.60;;;7.40;63.00;;;5.95;65.25;101684.97;12164453;19;20039;-85
2022/11/28 01:35:09;;;;;;;8.13;5.60;;;7.30;63.00;;;6.01;65.48;101688.34;12165691;19;20474;-86
2022/11/28 01:39:11;;;;;;;11.70;7.30;;;7.40;63.10;;;5.88;65.58;101654.00;12164846;19;20032;-85
2022/11/28 01:43:12;;;;;;;8.18;6.07;;;7.50;63.30;;;5.95;65.55;101666.84;12161929;19;20018;-86
2022/11/28 01:47:20;;;;;;;6.55;5.22;;;7.30;63.00;;;5.96;65.58;101670.28;12164988;19;20022;-86
2022/11/28 01:51:23;;;;;;;7.95;6.35;;;7.30;63.00;;;5.76;65.42;101632.63;12160119;19;20022;-85
2022/11/28 01:55:30;;;;;;;8.52;6.15;;;7.40;63.10;;;5.92;65.41;101650.47;12162094;19;20393;-86
2022/11/28 01:59:40;;;;;;;10.57;7.00;;;7.40;63.00;;;5.96;65.51;101650.38;12162510;19;20084;-86
2022/11/28 02:03:48;;;;;;;8.63;6.38;;;7.40;63.00;;;5.89;65.60;101637.56;12161748;19;20471;-86
2022/11/28 02:07:50;;;;;;;8.18;6.18;;;7.40;63.10;;;5.99;65.55;101649.47;12163339;19;20042;-86
2022/11/28 02:12:23;;;;;;;9.57;6.50;;;7.40;63.00;;;6.00;65.56;101661.56;12157250;19;20341;-86
2022/11/28 02:16:53;;;;;;;9.35;6.65;;;7.40;63.00;;;5.93;65.42;101642.69;12162090;19;20630;-86
2022/11/28 02:21:37;;;;;;;8.15;5.90;;;7.30;62.90;;;5.94;65.42;101647.00;12160141;19;20018;-86
2022/11/28 02:26:23;;;;;;;8.05;6.03;;;7.40;63.10;;;5.93;65.48;101644.38;12163862;19;20074;-86
2022/11/28 02:30:37;;;;;;;9.05;5.40;;;7.30;63.00;;;5.94;65.58;101630.56;12152250;19;20500;-86
2022/11/28 02:35:07;;;;;;;6.63;5.00;;;7.30;63.00;;;5.75;65.53;101604.16;12159936;19;20303;-85
2022/11/28 02:39:40;;;;;;;9.25;6.38;;;7.30;63.00;;;5.82;65.37;101607.47;12159172;19;20774;-86
2022/11/28 02:44:12;;;;;;;11.57;7.65;;;7.30;63.10;;;5.84;65.40;101618.66;12162578;19;20287;-86
2022/11/28 02:48:44;;;;;;;9.30;5.65;;;7.30;63.10;;;5.81;65.57;101601.44;12159231;19;20379;-86
2022/11/28 02:52:52;;;;;;;9.55;6.35;;;7.30;63.20;;;5.88;65.60;101615.13;12153470;19;20593;-86
2022/11/28 02:56:54;;;;;;;10.13;5.95;;;7.30;63.20;;;5.92;65.55;101606.41;12157645;19;21122;-86
2022/11/28 03:00:56;;;;;;;9.45;6.38;;;7.20;63.20;;;5.60;65.58;101553.50;12159257;19;20042;-85
2022/11/28 03:05:18;;;;;;;11.38;7.72;;;7.20;63.20;;;5.90;65.55;101608.16;12158476;19;20023;-86
2022/11/28 03:09:44;;;;;;;10.80;7.82;;;7.20;63.20;;;5.90;65.43;101608.16;12155426;19;20367;-86
2022/11/28 03:14:26;;;;;;;;;;;7.20;63.30;;;5.79;65.45;101577.28;12155717;19;20887;-85
2022/11/28 03:18:35;;;;;;;8.35;5.75;;;7.30;63.50;;;5.82;65.42;101568.59;12144649;19;20496;-85
2022/11/28 03:22:55;;;;;;;8.85;5.93;;;7.30;63.20;;;5.87;65.51;101583.16;12150211;19;20045;-86
2022/11/28 03:27:09;;;;;;;9.27;6.65;;;7.30;63.20;;;5.84;65.50;101572.88;12161786;19;20011;-85
2022/11/28 03:31:24;;;;;;;14.15;6.80;;;7.20;63.20;;;5.89;65.67;101577.97;12164896;19;20025;-85
2022/11/28 03:35:32;;;;;;;12.73;7.88;;;7.30;63.20;;;5.82;65.51;101558.22;12168007;19;20467;-86
2022/11/28 03:39:40;;;;;;;10.57;7.20;;;7.20;63.20;;;5.90;65.66;101570.13;12169807;19;20732;-86
2022/11/28 03:43:52;;;;;;;10.68;6.90;;;7.20;63.30;;;5.85;65.44;101555.56;12168227;19;20701;-85
2022/11/28 03:48:38;;;;;;;11.00;7.45;;;7.50;63.60;;;5.91;65.49;101577.03;12170718;19;20622;-86
2022/11/28 03:52:51;;;;;;;11.90;7.00;;;7.30;63.40;;;5.79;65.53;101543.59;12159201;19;20383;-86
2022/11/28 03:57:14;;;;;;;11.82;8.00;;;7.30;63.30;;;5.94;65.39;101561.44;12168400;19;20435;-86
2022/11/28 04:01:46;;;;;;;12.90;7.07;;;7.30;63.30;;;5.91;65.64;101552.84;12167371;19;20379;-86
2022/11/28 04:06:04;;;;;;;13.32;7.75;;;7.30;63.20;;;5.83;65.46;101534.00;12170792;19;20014;-86
2022/11/28 04:10:26;;;;;;;12.10;7.65;;;7.30;63.40;;;5.79;65.63;101529.81;12168038;19;20018;-87
2022/11/28 04:14:40;;;;;;;12.88;8.05;;;7.30;63.30;;;5.85;65.70;101533.09;12162425;19;20010;-87
2022/11/28 04:19:08;;;;;;;15.38;8.75;;;7.30;63.40;;;5.85;65.51;101537.44;12155690;19;20739;-86
2022/11/28 04:23:15;;;;;;;10.85;7.55;;;7.30;63.40;;;5.87;65.60;101533.06;12158365;19;20014;-86
2022/11/28 04:27:25;;;;;;;10.77;6.60;;;7.30;63.30;;;5.93;65.66;101535.50;12153745;19;20023;-86
2022/11/28 04:31:29;;;;;;;12.05;7.03;;;7.30;63.20;;;5.93;65.75;101531.22;12154487;19;20782;-86
2022/11/28 04:35:37;;;;;;;10.98;6.72;;;7.30;63.30;;;5.90;65.67;101530.41;12159476;19;20031;-86
2022/11/28 04:39:44;;;;;;;11.65;6.38;;;7.30;63.10;;;5.80;65.62;101503.84;12162835;19;20568;-86
2022/11/28 04:44:02;;;;;;;13.98;7.03;;;7.30;63.10;;;5.86;65.64;101513.19;12159022;19;20792;-86
2022/11/28 04:48:04;;;;;;;12.02;8.10;;;7.30;63.10;;;5.88;65.69;101511.44;12161648;19;20867;-87
2022/11/28 04:52:41;;;;;;;14.15;7.75;;;7.30;63.00;;;5.94;65.58;101524.28;12158568;19;20015;-86
2022/11/28 04:56:54;;;;;;;10.98;7.00;;;7.40;63.10;;;5.82;65.69;101514.19;12160839;19;20023;-86
2022/11/28 05:00:57;;;;;;;11.20;6.22;;;7.30;63.00;;;5.85;65.77;101514.09;12160673;19;20394;-86
2022/11/28 05:04:59;;;;;;;10.93;7.22;;;7.30;63.00;;;5.83;65.72;101505.50;12164367;19;20529;-86
2022/11/28 05:09:03;;;;;;;13.65;7.57;;;7.50;63.10;;;5.91;65.73;101519.13;12161516;19;20030;-86
2022/11/28 05:13:04;;;;;;;9.30;6.78;;;7.40;62.90;;;5.96;65.51;101522.50;12155391;19;20029;-86
2022/11/28 05:17:08;;;;;;;12.90;7.28;;;7.40;63.00;;;5.95;65.71;101513.88;12161329;19;21066;-86
2022/11/28 05:21:11;;;;;;;13.55;8.10;;;7.30;62.80;;;6.00;65.78;101523.31;12160738;19;20025;-86
2022/11/28 05:25:13;;;;;;;12.27;7.68;;;7.40;62.90;;;5.90;65.57;101504.47;12160159;19;20910;-86
2022/11/28 05:29:15;;;;;;;13.23;8.20;;;7.40;62.90;;;6.02;65.67;101524.94;12161702;19;20022;-86
2022/11/28 05:33:17;;;;;;;13.45;8.45;;;7.40;62.90;;;5.97;65.70;101516.47;12158172;19;20311;-86
2022/11/28 05:37:19;;;;;;;12.88;8.57;;;7.30;62.80;;;5.90;65.57;101504.47;12160379;19;20043;-86
2022/11/28 05:41:23;;;;;;;12.15;8.45;;;7.40;62.90;;;5.76;65.73;101473.72;12160129;19;20456;-86
2022/11/28 05:45:25;;;;;;;11.55;8.02;;;7.40;62.90;;;6.05;65.55;101521.44;12159689;19;20029;-86
2022/11/28 05:49:27;;;;;;;12.80;8.55;;;7.60;63.00;;;5.87;65.69;101492.44;12161055;19;20030;-86
2022/11/28 05:53:29;;;;;;;12.88;8.65;;;7.40;62.80;;;5.89;65.54;101497.59;12156323;19;20021;-86
2022/11/28 05:57:31;;;;;;;15.20;8.93;;;7.60;63.00;;;6.02;65.50;101503.38;12158104;19;20883;-86
2022/11/28 06:01:33;;;;;;;12.38;8.05;;;7.40;62.80;;;5.64;65.69;101438.53;12157354;19;20022;-86
2022/11/28 06:05:40;;;;;;;16.13;10.02;;;7.40;62.70;;;5.75;65.67;101459.91;12158077;19;20410;-86
2022/11/28 06:09:42;;;;;;;12.73;8.25;;;7.40;62.80;;;5.93;65.63;101484.56;12159654;19;20025;-86
2022/11/28 06:13:45;;;;;;;12.93;7.85;;;7.40;62.90;;;5.76;65.75;101443.47;12157271;19;20879;-86
2022/11/28 06:17:47;;;;;;;14.52;8.40;;;7.60;63.10;;;5.99;65.65;101480.97;12156356;19;20909;-86
2022/11/28 06:21:49;;;;;;;12.00;8.25;;;7.40;62.80;;;5.97;65.49;101465.47;12153585;19;20023;-86
2022/11/28 06:25:51;;;;;;;15.05;9.30;;;7.40;62.70;;;5.96;65.55;101468.91;12153482;19;20864;-86
2022/11/28 06:29:53;;;;;;;16.48;9.75;;;7.40;62.70;;;6.04;65.70;101475.66;12152315;19;20363;-86
2022/11/28 06:33:57;;;;;;;15.15;8.30;;;7.40;62.70;;;5.79;65.69;101442.53;12155747;19;20022;-86
2022/11/28 06:37:59;;;;;;;16.27;9.63;;;7.40;62.80;;;6.01;65.52;101478.34;12159387;19;20019;-86
2022/11/28 06:42:01;;;;;;;13.02;8.43;;;7.40;62.90;;;5.85;65.77;101441.53;12156334;19;20037;-86
2022/11/28 06:46:04;;;;;;;13.20;9.40;;;7.40;62.80;;;6.00;65.63;101474.06;12156709;19;20399;-86
2022/11/28 06:50:08;;;;;;;13.15;8.85;;;7.40;62.90;;;5.86;65.54;101451.00;12153774;19;20014;-86
2022/11/28 06:54:10;;;;;;;14.33;8.90;;;7.30;62.80;;;5.85;65.63;101446.72;12154968;19;20302;-86
2022/11/28 06:58:12;;;;;;;12.68;8.82;;;7.30;62.90;;;5.94;65.56;101454.28;12171846;19;20074;-86
2022/11/28 07:02:14;;;;;;;16.70;10.02;;;7.30;62.90;;;5.70;65.54;101422.88;12175726;19;20506;-86
2022/11/28 07:06:18;;;;;;;13.27;8.45;;;7.30;62.90;;;5.93;65.75;101456.03;12181804;19;20778;-86
2022/11/28 07:10:21;;;;;;;13.73;8.68;;;7.30;62.90;;;5.87;65.70;101447.53;12180022;19;20391;-86
2022/11/28 07:14:23;;;;;;;14.48;8.45;;;7.50;63.10;;;5.98;65.78;101471.50;12180538;19;20007;-87
2022/11/28 07:18:25;;;;;;;16.45;9.57;;;7.30;63.00;;;5.95;65.61;101453.41;12178409;19;20028;-86
2022/11/28 07:22:27;;;;;;;14.48;8.95;;;7.30;63.10;;;5.97;65.62;101465.47;12174796;19;20038;-86
2022/11/28 07:26:29;;;;;;;17.27;9.95;;;7.30;63.10;;;5.95;65.63;101459.44;12176967;19;20606;-86
2022/11/28 07:30:31;;;;;;;15.73;9.43;;;7.30;63.00;;;5.60;65.62;101405.00;12177104;19;20629;-86
2022/11/28 07:34:33;;;;;;;13.10;8.02;;;7.30;63.10;;;5.73;65.67;101425.38;12176678;19;20018;-87
2022/11/28 07:38:35;;;;;;;13.85;9.27;;;7.40;63.20;;;5.93;65.79;101460.34;12173199;19;20874;-87
2022/11/28 07:42:37;;;;;;;20.92;11.40;;;7.30;64.00;;;5.94;65.83;101446.50;12174744;19;20444;-87
2022/11/28 07:46:39;;;;;;;17.98;10.85;;;7.30;64.10;;;5.92;65.88;101445.69;12175182;19;20023;-86
2022/11/28 07:50:40;;;;;;;15.68;9.23;;;7.30;63.40;;;5.92;65.86;101445.69;12175402;19;20019;-86
2022/11/28 07:54:42;;;;;;;16.42;10.05;;;7.30;63.40;;;5.94;65.94;101441.31;12177218;19;20018;-86
2022/11/28 07:58:46;;;;;;;17.92;10.30;;;7.30;63.40;;;5.91;65.75;101434.47;12173643;19;20541;-87
2022/11/28 08:02:47;;;;;;;17.85;10.32;;;7.30;63.40;;;5.84;65.92;101434.66;12158470;19;20014;-85
2022/11/28 08:06:49;;;;;;;16.98;9.82;;;7.30;63.40;;;5.85;65.70;101418.22;12148535;19;20623;-86
2022/11/28 08:11:01;;;;;;;18.50;10.15;;;7.30;63.40;;;5.72;65.85;101407.28;12145808;19;20398;-86
2022/11/28 08:15:04;;;;;;;14.67;8.77;;;7.40;63.40;;;5.85;65.92;101420.78;12152914;19;20631;-86
2022/11/28 08:19:06;;;;;;;15.05;9.13;;;7.40;63.30;;;5.99;65.77;101436.88;12150620;19;20279;-86
2022/11/28 08:23:08;;;;;;;14.88;8.75;;;7.60;63.50;;;6.04;65.73;101440.22;12147944;19;20303;-86
2022/11/28 08:27:10;;;;;;;14.00;8.85;;;7.50;63.40;;;6.08;65.91;101441.84;12146084;19;20131;-86
2022/11/28 08:31:21;;;;;;;20.15;10.55;;;7.40;63.30;;;5.78;65.91;101381.25;12149213;19;20475;-86
2022/11/28 08:35:23;;;;;;;18.73;10.38;;;7.50;63.40;;;6.15;65.84;101432.16;12166066;19;20014;-87
2022/11/28 08:39:25;;;;;;;17.27;10.38;;;7.50;63.40;;;6.17;65.79;101422.63;12165758;19;20073;-87
2022/11/28 08:43:27;;;;;;;22.45;11.98;;;7.50;63.30;;;6.15;65.93;101420.06;12166320;19;20373;-86
2022/11/28 08:47:29;;;;;;;18.60;10.63;;;7.50;63.10;;;5.97;65.93;101381.66;12161347;19;20046;-87
2022/11/28 08:51:31;;;;;;;18.25;11.10;;;7.60;63.20;;;6.16;66.00;101400.19;12159237;19;20010;-87
2022/11/28 08:55:33;;;;;;;13.27;8.30;;;7.60;63.40;;;6.29;65.82;101418.84;12157173;19;20023;-87
2022/11/28 08:59:36;;;;;;;15.55;8.57;;;7.70;63.30;;;6.31;65.96;101422.25;12159127;19;20386;-87
2022/11/28 09:03:37;;;;;;;19.83;11.10;;;7.70;63.30;;;6.30;65.97;101415.38;12166105;19;20021;-87
2022/11/28 09:07:39;;;;;;;16.83;9.45;;;7.70;63.10;;;6.32;65.99;101403.19;12160735;19;20018;-87
2022/11/28 09:11:42;;;;;;;19.33;9.73;;;7.80;63.10;;;6.47;65.98;101433.09;12158968;19;20018;-86
2022/11/28 09:15:45;;;;;;;19.90;10.65;;;7.80;63.10;;;6.49;65.84;101426.97;12167125;19;20145;-87
2022/11/28 09:19:48;;;;;;;19.73;10.82;;;7.80;62.90;;;6.48;65.82;101406.22;12152090;19;20284;-86
2022/11/28 09:23:53;;;;;;;19.48;10.75;;;7.90;62.80;;;6.56;66.09;101420.72;12151365;19;20841;-86
2022/11/28 09:27:55;;;;;;;21.83;10.48;;;8.00;62.80;;;6.47;65.84;101394.16;12146815;19;20438;-86
2022/11/28 09:31:56;;;;;;;20.05;10.02;;;8.00;62.80;;;6.48;65.82;101370.78;12144396;19;20050;-86
2022/11/28 09:35:58;;;;;;;20.38;9.93;;;8.10;62.90;;;6.69;65.94;101412.59;12146562;19;20856;-86
2022/11/28 09:40:00;;;;;;;19.23;10.15;;;8.10;62.70;;;6.76;65.85;101414.13;12148494;19;20025;-87
2022/11/28 09:44:08;;;;;;;23.85;12.43;;;8.10;62.50;;;6.78;65.79;101413.19;12153869;19;20046;-87
2022/11/28 09:48:37;;;;;;;19.92;11.02;;;8.10;62.20;;;6.82;65.91;101416.53;12162608;19;20011;-86
2022/11/28 09:52:47;;;;;;;21.75;12.90;;;8.20;62.20;;;6.68;65.97;101384.94;12134167;19;20382;-86
2022/11/28 09:56:49;;;;;;;26.88;12.82;;;8.30;62.10;;;6.56;65.76;101353.25;12146599;19;20010;-87
2022/11/28 10:01:14;;;;;;;27.63;12.57;;;8.30;62.00;;;6.87;65.86;101396.50;12154514;19;20482;-87
2022/11/28 10:05:32;;;;;;;19.55;10.88;;;8.30;62.00;;;6.90;65.69;101386.00;12147327;19;20021;-87
2022/11/28 10:10:10;;;;;;;21.13;12.45;;;8.30;61.90;;;6.98;65.68;101397.03;12141756;19;20772;-86
2022/11/28 10:15:04;;;;;;;24.63;12.48;;;8.40;61.90;;;6.99;65.65;101383.13;12138873;19;20014;-87
2022/11/28 10:19:14;;;;;;;26.67;12.77;;;8.40;61.60;;;6.98;65.76;101378.00;12155647;19;20506;-87
2022/11/28 10:23:23;;;;;;;18.90;10.70;;;8.40;61.80;;;6.99;65.68;101367.56;12151305;19;20015;-87
2022/11/28 10:27:34;;;;;;;20.60;10.60;;;8.50;61.80;;;7.06;65.74;101371.69;12156342;19;20018;-88
2022/11/28 10:31:42;;;;;;;19.48;11.63;;;8.60;61.60;;;7.01;65.68;101378.75;12152267;19;20015;-87
2022/11/28 10:35:52;;;;;;;21.00;11.45;;;8.50;61.50;;;7.11;65.89;101383.69;12148150;19;20019;-87
2022/11/28 10:39:57;;;;;;;21.85;10.75;;;8.60;61.50;;;6.87;65.86;101339.38;12151871;19;21124;-87
2022/11/28 10:44:05;;;;;;;18.70;11.25;;;8.60;61.70;;;7.25;65.87;101387.56;12157026;19;20013;-87
2022/11/28 10:48:33;;;;;;;20.98;11.38;;;8.60;61.70;;;7.29;65.61;101373.59;12147606;19;20018;-86
2022/11/28 10:52:46;;;;;;;19.83;10.20;;;8.70;61.60;;;7.30;65.82;101359.69;12150015;19;20026;-87
2022/11/28 10:57:41;;;;;;;20.05;10.70;;;8.70;61.20;;;7.36;65.66;101358.63;12153664;19;20020;-86
2022/11/28 11:01:42;;;;;;;20.15;12.15;;;8.80;61.10;;;7.36;65.68;101330.06;12155829;19;20783;-87
2022/11/28 11:05:44;;;;;;;16.85;9.35;;;8.90;61.10;;;7.48;65.59;101342.69;12156770;19;20382;-86
2022/11/28 11:09:46;;;;;;;18.08;9.70;;;8.80;61.30;;;7.53;65.80;101339.91;12153557;19;20268;-86
2022/11/28 11:14:04;;;;;;;17.50;10.00;;;8.90;61.20;;;7.57;65.55;101346.72;12150903;19;20837;-87
2022/11/28 11:18:26;;;;;;;17.95;10.13;;;9.00;61.20;;;7.56;65.78;101324.25;12156042;19;20014;-87
2022/11/28 11:22:30;;;;;;;21.42;11.30;;;9.10;60.90;;;7.57;65.45;101318.13;12151083;19;20051;-87
2022/11/28 11:26:47;;;;;;;15.70;9.35;;;9.00;60.00;;;7.49;65.47;101299.34;12152892;19;20011;-87
2022/11/28 11:31:05;;;;;;;15.43;9.65;;;9.10;60.90;;;7.64;65.45;101330.03;12141619;19;20808;-87
2022/11/28 11:35:22;;;;;;;18.10;10.57;;;9.10;60.10;;;7.70;65.45;101336.78;12151500;19;20862;-87
2022/11/28 11:39:24;;;;;;;18.42;9.82;;;9.10;60.30;;;7.43;65.63;101297.78;12152356;19;20775;-86
2022/11/28 11:43:34;;;;;;;16.58;9.55;;;9.20;60.70;;;7.82;65.38;101345.91;12152888;19;20019;-87
2022/11/28 11:47:42;;;;;;;20.33;10.85;;;9.20;60.20;;;7.75;65.59;101322.72;12168294;19;20014;-87
2022/11/28 11:51:56;;;;;;;18.98;10.55;;;9.30;59.90;;;7.95;65.53;101336.78;12157996;19;20022;-86
2022/11/28 11:56:02;;;;;;;18.20;10.13;;;9.30;59.70;;;7.89;65.40;101311.00;12163110;19;20015;-86
2022/11/28 12:00:21;;;;;;;16.27;10.43;;;9.30;59.80;;;7.98;65.41;101319.31;12162864;19;20451;-87
2022/11/28 12:04:42;;;;;;;19.35;10.18;;;9.40;59.70;;;8.02;65.42;101325.28;12159494;19;20022;-86
2022/11/28 12:09:12;;;;;;;15.75;10.10;;;9.40;60.60;;;8.06;65.26;101331.22;12161628;19;20015;-86
2022/11/28 12:13:22;;;;;;;16.73;9.35;;;9.40;59.90;;;8.11;65.36;101337.09;12158561;19;20430;-87
2022/11/28 12:17:35;;;;;;;17.70;9.75;;;9.50;60.10;;;8.15;65.37;101330.88;12164807;19;20011;-87
2022/11/28 12:22:06;;;;;;;17.58;10.55;;;9.50;60.00;;;8.16;65.14;101317.81;12162570;19;20398;-86
2022/11/28 12:26:32;;;;;;;16.00;9.23;;;9.60;59.80;;;8.21;65.31;101304.66;12163170;19;20039;-87
2022/11/28 12:31:07;;;;;;;15.10;9.07;;;9.60;59.80;;;8.23;65.12;101308.03;12166867;19;20022;-87
2022/11/28 12:35:43;;;;;;;15.60;7.88;;;9.60;59.70;;;8.06;65.19;101271.38;12169858;19;20018;-87
2022/11/28 12:40:02;;;;;;;15.80;8.77;;;9.60;59.80;;;8.29;65.20;101296.56;12164574;19;20018;-87
2022/11/28 12:45:13;;;;;;;18.05;9.68;;;9.60;59.60;;;8.27;65.02;101295.78;12166302;19;20022;-87
2022/11/28 12:49:43;;;;;;;17.05;8.30;;;9.70;59.70;;;8.29;65.23;101306.97;12161809;19;20704;-87
2022/11/28 12:54:09;;;;;;;17.13;9.38;;;9.70;59.70;;;8.17;65.06;101288.28;12165639;19;20015;-87
2022/11/28 12:58:39;;;;;;;16.60;9.65;;;9.70;59.60;;;8.13;65.30;101278.91;12162275;19;20896;-87
2022/11/28 13:03:12;;;;;;;15.85;9.27;;;9.70;59.60;;;8.26;64.88;101297.50;12162406;19;20010;-87
2022/11/28 13:07:59;;;;;;;17.90;9.55;;;9.60;59.30;;;8.15;64.94;101278.84;12172280;19;20713;-87
2022/11/28 13:12:38;;;;;;;17.23;9.43;;;9.60;59.30;;;8.23;65.06;101295.03;12174153;19;20019;-87
2022/11/28 13:16:53;;;;;;;17.42;9.63;;;9.60;59.50;;;8.16;64.80;101283.16;12169854;19;20014;-87
2022/11/28 13:21:36;;;;;;;16.15;9.65;;;9.60;59.50;;;8.24;64.90;101301.94;12171464;19;20014;-87
2022/11/28 13:26:04;;;;;;;15.23;9.02;;;9.60;59.60;;;8.12;64.96;101276.34;12171149;19;20303;-87
2022/11/28 13:30:25;;;;;;;18.13;9.45;;;9.60;59.60;;;8.18;64.79;101289.13;12170587;19;20575;-87
2022/11/28 13:34:28;;;;;;;17.42;10.27;;;9.60;59.60;;;8.12;64.80;101277.19;12168557;19;20053;-87
2022/11/28 13:38:54;;;;;;;17.35;10.27;;;9.60;59.50;;;7.95;64.85;101248.38;12157060;19;20267;-87
2022/11/28 13:43:23;;;;;;;17.23;10.50;;;9.60;59.50;;;8.01;64.83;101262.91;12153812;19;20050;-87
2022/11/28 13:47:33;;;;;;;17.73;10.05;;;9.60;59.60;;;8.06;64.79;101281.78;12157040;19;20014;-87
2022/11/28 13:51:36;;;;;;;17.92;10.40;;;9.50;59.60;;;8.14;64.77;101295.38;12156757;19;20415;-86
2022/11/28 13:55:39;;;;;;;20.85;10.82;;;9.50;59.60;;;8.06;64.97;101277.44;12160470;19;20014;-86
2022/11/28 14:00:07;;;;;;;21.15;12.60;;;9.40;59.60;;;8.06;64.78;101282.63;12158086;19;20022;-87
2022/11/28 14:04:18;;;;;;;17.83;11.27;;;9.40;59.60;;;8.01;64.63;101275.91;12156768;19;20010;-87
2022/11/28 14:08:41;;;;;;;21.80;12.13;;;9.50;59.60;;;7.96;64.66;101276.91;12156923;19;20443;-87
2022/11/28 14:12:45;;;;;;;18.92;11.18;;;9.40;59.60;;;8.07;64.79;101294.72;12157681;19;20030;-87
2022/11/28 14:17:21;;;;;;;16.38;11.15;;;9.40;59.70;;;8.01;64.67;101289.75;12149126;19;20051;-87
2022/11/28 14:21:39;;;;;;;19.60;12.27;;;9.40;59.70;;;7.97;64.76;101294.22;12150108;19;20014;-87
2022/11/28 14:25:47;;;;;;;21.95;12.75;;;9.30;59.70;;;7.82;64.59;101266.16;12149618;19;20018;-88
2022/11/28 14:29:53;;;;;;;22.73;14.23;;;9.30;59.60;;;7.81;64.60;101274.00;12147918;19;20376;-87
2022/11/28 14:33:58;;;;;;;;;;;9.20;59.60;;;7.85;64.58;101292.03;12151867;19;20559;-87
2022/11/28 14:38:01;;;;;;;24.98;12.65;;;9.20;59.60;;;7.75;64.83;101282.88;12150722;19;19915;-88
2022/11/28 14:42:03;;;;;;;26.20;15.20;;;9.10;59.60;;;7.76;64.73;101289.75;12151020;19;20411;-88
2022/11/28 14:46:14;;;;;;;24.05;13.27;;;9.10;59.40;;;7.71;64.75;101296.88;12159993;19;20471;-88
2022/11/28 14:50:19;;;;;;;25.50;14.85;;;9.00;59.60;;;7.69;64.54;101296.91;12117129;19;20014;-87
2022/11/28 14:54:35;;;;;;;23.65;14.50;;;9.00;59.50;;;7.53;64.46;101277.53;12103698;19;20370;-87
2022/11/28 14:58:38;;;;;;;20.95;13.40;;;9.00;59.70;;;7.47;64.69;101272.56;12104548;19;20382;-87
2022/11/28 15:03:07;;;;;;;20.25;12.77;;;8.90;59.70;;;7.60;64.56;101304.19;12113864;19;20115;-88
2022/11/28 15:07:27;;;;;;;25.30;13.57;;;8.90;59.70;;;7.57;64.55;101309.50;12126075;19;20429;-88
2022/11/28 15:12:07;;;;;;;25.45;14.63;;;8.80;59.70;;;7.46;64.37;101292.50;12119514;19;20587;-87
2022/11/28 15:16:14;;;;;;;22.52;12.77;;;8.80;59.70;;;7.37;64.71;101268.56;12121787;19;20409;-88
2022/11/28 15:20:42;;;;;;;18.92;11.48;;;8.80;59.70;;;7.41;64.40;101286.59;12133411;19;20483;-88
2022/11/28 15:24:51;;;;;;;21.85;13.32;;;8.70;59.80;;;7.41;64.50;101293.56;12128715;19;20450;-86
2022/11/28 15:29:23;;;;;;;24.35;13.75;;;8.80;59.80;;;7.34;64.37;101292.88;12162072;19;20018;-86
2022/11/28 15:33:26;;;;;;;23.23;13.75;;;8.70;59.80;;;7.26;64.58;101279.28;12166133;19;20014;-86
2022/11/28 15:37:32;;;;;;;26.92;15.35;;;8.60;59.70;;;7.29;64.44;101297.38;12167020;19;20029;-86
2022/11/28 15:41:33;;;;;;;27.13;15.55;;;8.60;59.60;;;7.27;64.67;101299.19;12167295;19;20803;-87
2022/11/28 15:45:35;;;;;;;22.45;13.32;;;8.60;59.70;;;7.17;64.71;101297.78;12170754;19;20014;-86
2022/11/28 15:49:39;;;;;;;27.55;15.10;;;8.50;59.80;;;6.96;64.71;101262.94;12169791;19;20019;-86
2022/11/28 15:53:41;;;;;;;24.15;14.90;;;8.50;59.90;;;7.18;64.58;101302.06;12172358;19;20011;-86
2022/11/28 15:57:43;;;;;;;25.30;13.60;;;8.40;59.80;;;7.19;64.72;101294.25;12171888;19;20038;-86
2022/11/28 16:01:46;;;;;;;26.25;14.52;;;8.40;59.90;;;7.05;64.51;101280.84;12166017;19;20588;-86
2022/11/28 16:05:51;;;;;;;26.00;13.95;;;8.40;59.90;;;7.06;64.42;101290.34;12166320;19;20282;-86
2022/11/28 16:10:05;;;;;;;24.57;14.80;;;8.40;59.90;;;7.12;64.57;101310.06;12166179;19;20399;-86
2022/11/28 16:14:09;;;;;;;37.23;19.87;;;8.40;59.80;;;6.93;64.44;101292.47;12169552;19;20014;-86
2022/11/28 16:18:14;;;;;;;33.97;17.00;;;8.40;59.60;;;7.02;64.36;101319.88;12164626;19;20015;-86
2022/11/28 16:22:20;;;;;;;32.03;17.33;;;8.30;59.80;;;7.00;64.47;101313.91;12157484;19;20039;-86
2022/11/28 16:26:36;;;;;;;;;;;8.30;59.70;;;6.94;64.38;101317.53;12166732;19;20025;-86
2022/11/28 16:30:42;;;;;;;17.27;10.95;;;8.20;59.80;;;6.89;64.49;101303.84;12163960;19;20293;-86
2022/11/28 16:34:51;;;;;;;25.17;12.35;;;8.20;59.90;;;6.86;64.65;101302.19;12164472;19;20304;-86
2022/11/28 16:39:10;;;;;;;22.80;12.30;;;8.20;60.00;;;6.81;64.60;101287.66;12161171;19;20286;-87
2022/11/28 16:43:39;;;;;;;26.13;13.55;;;8.20;59.90;;;6.81;64.39;101290.25;12160081;19;20018;-86
2022/11/28 16:47:42;;;;;;;24.88;14.70;;;8.20;59.90;;;6.93;64.53;101295.06;12161848;19;21092;-86
2022/11/28 16:51:44;;;;;;;23.10;13.30;;;8.20;59.90;;;6.75;64.53;101269.66;12157477;19;20740;-86
2022/11/28 16:55:46;;;;;;;23.45;14.30;;;8.10;60.00;;;6.92;64.57;101308.94;12158423;19;20022;-85
2022/11/28 16:59:51;;;;;;;25.48;13.57;;;8.10;60.00;;;6.68;64.59;101266.41;12150097;19;20457;-86
2022/11/28 17:03:56;;;;;;;22.15;12.93;;;8.20;60.10;;;6.92;64.65;101316.72;12162811;19;20018;-86
2022/11/28 17:08:00;;;;;;;24.37;13.90;;;8.10;60.10;;;6.90;64.41;101312.47;12165986;19;20019;-86
2022/11/28 17:12:18;;;;;;;23.08;13.73;;;8.20;60.20;;;6.93;64.66;101325.38;12163584;19;20014;-86
2022/11/28 17:16:23;;;;;;;25.13;13.98;;;8.40;60.50;;;6.83;64.63;101306.59;12163801;19;20041;-86
2022/11/28 17:20:25;;;;;;;23.33;13.60;;;8.20;60.30;;;6.96;64.66;101323.50;12164785;19;20018;-86
2022/11/28 17:24:33;;;;;;;24.50;12.63;;;8.20;60.20;;;6.82;64.46;101299.72;12163858;19;20461;-86